Virtual United States Air Force

 METAR AND TAF INFORMATION
METAR FOR KHST
ADDS - METARS form results

(2011 UTC 04 April 2020)
Data provider http://aviationweather.gov/metar/data/
 
METAR text: KHST 042006Z 14008KT 10SM SCT055 28/18 A2989 RMK RAE1959 SLP125
Conditions at: KHST (HOMESTEAD AFB , FL, US) observed 2006 UTC 04 April 2020
Temperature: 28.0°C (82°F)
Dewpoint: 18.0°C (64°F) [RH = 55%]
Pressure (altimeter): 29.89 inches Hg (1012.3 mb)
[Sea-level pressure: 1012.5 mb]
Winds: from the SE (140 degrees) at 9 MPH (8 knots; 4.1 m/s)
Visibility: 10 or more miles (16+ km)
Ceiling: at least 12,000 feet AGL
Clouds: scattered clouds at 5500 feet AGL
Weather: no significant weather observed at this time

METAR text: KHST 041959Z AUTO 14009KT 10SM BKN055 28/18 A2990 RMK AO2 RAE59 SLP128
Conditions at: KHST (HOMESTEAD AFB , FL, US) observed 1959 UTC 04 April 2020
Temperature: 28.0°C (82°F)
Dewpoint: 18.0°C (64°F) [RH = 55%]
Pressure (altimeter): 29.90 inches Hg (1012.6 mb)
[Sea-level pressure: 1012.8 mb]
Winds: from the SE (140 degrees) at 10 MPH (9 knots; 4.6 m/s)
Visibility: 10 or more miles (16+ km)
Ceiling: 5500 feet AGL
Clouds: broken clouds at 5500 feet AGL
Weather: automated observation with no human augmentation;
there may or may not be significant weather present at this time

METAR text: KHST 041956Z AUTO 15008KT 10SM -RA BKN055 28/18 A2990 RMK AO2 DZB12E21RAB49 SLP128 P0000 T02800178
Conditions at: KHST (HOMESTEAD AFB , FL, US) observed 1956 UTC 04 April 2020
Temperature: 28.0°C (82°F)
Dewpoint: 17.8°C (64°F) [RH = 54%]
Pressure (altimeter): 29.90 inches Hg (1012.6 mb)
[Sea-level pressure: 1012.8 mb]
Winds: from the SSE (150 degrees) at 9 MPH (8 knots; 4.1 m/s)
Visibility: 10 or more miles (16+ km)
Ceiling: 5500 feet AGL
Clouds: broken clouds at 5500 feet AGL
Weather: -RA  (light rain)

METAR text: KHST 041949Z AUTO 12010G15KT 10SM -RA BKN055 28/18 A2990 RMK AO2 DZB12E21RAB49 SLP128
Conditions at: KHST (HOMESTEAD AFB , FL, US) observed 1949 UTC 04 April 2020
Temperature: 28.0°C (82°F)
Dewpoint: 18.0°C (64°F) [RH = 55%]
Pressure (altimeter): 29.90 inches Hg (1012.6 mb)
[Sea-level pressure: 1012.8 mb]
Winds: from the ESE (120 degrees) at 12 MPH (10 knots; 5.1 m/s)
gusting to 17 MPH (15 knots; 7.7 m/s)
Visibility: 10 or more miles (16+ km)
Ceiling: 5500 feet AGL
Clouds: broken clouds at 5500 feet AGL
Weather: -RA  (light rain)

METAR text: KHST 041921Z AUTO 12008KT 10SM SCT060 28/17 A2991 RMK AO2 DZB12E21 SLP132
Conditions at: KHST (HOMESTEAD AFB , FL, US) observed 1921 UTC 04 April 2020
Temperature: 28.0°C (82°F)
Dewpoint: 17.0°C (63°F) [RH = 51%]
Pressure (altimeter): 29.91 inches Hg (1013.0 mb)
[Sea-level pressure: 1013.2 mb]
Winds: from the ESE (120 degrees) at 9 MPH (8 knots; 4.1 m/s)
Visibility: 10 or more miles (16+ km)
Ceiling: at least 12,000 feet AGL
Clouds: scattered clouds at 6000 feet AGL
Weather: automated observation with no human augmentation;
there may or may not be significant weather present at this time

METAR text: KHST 041912Z AUTO 14008KT 10SM -DZ FEW055 28/18 A2992 RMK AO2 DZB12 SLP135
Conditions at: KHST (HOMESTEAD AFB , FL, US) observed 1912 UTC 04 April 2020
Temperature: 28.0°C (82°F)
Dewpoint: 18.0°C (64°F) [RH = 55%]
Pressure (altimeter): 29.92 inches Hg (1013.3 mb)
[Sea-level pressure: 1013.5 mb]
Winds: from the SE (140 degrees) at 9 MPH (8 knots; 4.1 m/s)
Visibility: 10 or more miles (16+ km)
Ceiling: at least 12,000 feet AGL
Clouds: few clouds at 5500 feet AGL
Weather: -DZ  (light drizzle)

Forecast for: KHST (HOMESTEAD AFB , FL, US)
Text: TAF KHST 041900Z 0419/0601 11010KT 9999 SCT040 SCT130 QNH2990INS
Forecast period: 1900 to 2300 UTC 04 April 2020
Forecast type: FROM: standard forecast or significant change
Winds: from the ESE (110 degrees) at 12 MPH (10 knots; 5.1 m/s)
Visibility: 6 or more miles 10+ km)
Ceiling: at least 12,000 feet AGL
Clouds: scattered clouds at 4000 feet AGL
scattered clouds at 13000 feet AGL
Weather: no significant weather forecast for this period
Text: BECMG 0423/0424 VRB06KT 9999 FEW040 QNH2993INS
Forecast period: 2300 UTC 04 April 2020 to 1400 UTC 05 April 2020
Forecast type: BECOMING: Conditions expected to become as follows by 0000 UTC 05 April 2020
Winds: variable direction winds at 7 MPH (6 knots; 3.1 m/s)
Visibility: 6 or more miles 10+ km)
Ceiling: at least 12,000 feet AGL
Clouds: few clouds at 4000 feet AGL
Weather: no significant weather forecast for this period
Text: BECMG 0514/0515 12008KT 9999 BKN025 BKN130 QNH3000INS
Forecast period: 1400 to 2000 UTC 05 April 2020
Forecast type: BECOMING: Conditions expected to become as follows by 1500 UTC 05 April 2020
Winds: from the ESE (120 degrees) at 9 MPH (8 knots; 4.1 m/s)
Visibility: 6 or more miles 10+ km)
Ceiling: 2500 feet AGL
Clouds: broken clouds at 2500 feet AGL
broken clouds at 13000 feet AGL
Weather: no significant weather forecast for this period
Text: BECMG 0520/0521 12008KT 9999 -SHRA OVC018 QNH3000INS TX28/0419Z TN20/0511Z
Forecast period: 2000 UTC 05 April 2020 to 0100 UTC 06 April 2020
Forecast type: BECOMING: Conditions expected to become as follows by 2100 UTC 05 April 2020
Winds: from the ESE (120 degrees) at 9 MPH (8 knots; 4.1 m/s)
Visibility: 6 or more miles 10+ km)
Ceiling: 1800 feet AGL
Clouds: overcast cloud deck at 1800 feet AGL
Weather: -SHRA  (light rain showers)

 AIRPORT MAP

 RUNWAY INFORMATION
Runway 05 Runway length 11201 ft Runway width 300 ft
Runway elevation 6 ft Runway displaced threshold 0 ft Runway heading 49
Runway 23 Runway length 11201 ft Runway width 300 ft
Runway elevation 6 ft Runway displaced threshold 0 ft Runway heading 229

 AIRPORT FREQUENCIES
Type A/D Name APP/DEP Frequency 123.8 MHZ
Type ATIS Name ATIS Frequency 132.275 MHZ
Type CLD Name CLNC DEL Frequency 27.58 MHZ
Type GCA Name GCA Frequency 123.8 MHZ
Type GND Name GND Frequency 121.75 MHZ
Type OPS Name 93FS Frequency 138.025 MHZ
Type PMSV Name PMSV METRO Frequency 31.865 MHZ
Type POST Name COMD POST Frequency 25.21 MHZ
Type PTD Name PTD Frequency 37.22 MHZ
Type TWR Name TWR Frequency 133.45 MHZ

 AIRPORT NEAR NAVIGATION AIDS


Neither the Department of the Air Force, nor any other component of the Department of Defense or Federal Government has approved, endorsed, or authorized this promotion, activity, or organization. Virtual United States Air Force organization is in no way affiliated with the Department of Defense, Department of the Air Force, or any other federal or government entity. Virtual United States Air Force is a group of flight simulation enthusiasts with the common interest of promoting enjoyment and cameraderie through the simulation of military operations and procedures utilizing several flight simulation platforms.

Copyright © vUSAF, LLC // 2018 All Rights Reserved